createdAt,value
2022-10-24T00:01:25.381Z,10.85
2022-10-24T00:04:31.671Z,11.60
2022-10-24T00:07:37.983Z,11.63
2022-10-24T00:10:44.810Z,10.50
2022-10-24T00:13:51.694Z,11.40
2022-10-24T00:16:56.991Z,10.85
2022-10-24T00:20:05.388Z,11.10
2022-10-24T00:23:11.058Z,10.78
2022-10-24T00:26:17.617Z,11.70
2022-10-24T00:29:23.604Z,10.93
2022-10-24T00:32:30.460Z,11.08
2022-10-24T00:35:36.322Z,11.28
2022-10-24T00:38:42.957Z,10.65
2022-10-24T00:41:53.081Z,10.38
2022-10-24T00:45:00.348Z,11.05
2022-10-24T00:48:06.111Z,10.85
2022-10-24T00:51:19.434Z,10.82
2022-10-24T00:54:26.112Z,10.32
2022-10-24T00:57:59.670Z,10.82
2022-10-24T01:01:05.387Z,11.15
2022-10-24T01:04:10.273Z,11.93
2022-10-24T01:07:30.090Z,11.80
2022-10-24T01:10:47.177Z,12.68
2022-10-24T01:14:16.243Z,12.47
2022-10-24T01:17:39.394Z,13.62
2022-10-24T01:21:25.696Z,12.53
2022-10-24T01:25:08.363Z,12.50
2022-10-24T01:28:27.228Z,13.38
2022-10-24T01:31:52.593Z,11.78
2022-10-24T01:35:11.476Z,13.70
2022-10-24T01:38:29.333Z,14.40
2022-10-24T01:41:27.209Z,15.32
2022-10-24T01:44:42.694Z,17.25
2022-10-24T01:47:56.523Z,17.02
2022-10-24T01:51:03.522Z,18.10
2022-10-24T01:54:11.005Z,15.30
2022-10-24T01:57:17.756Z,17.37
2022-10-24T02:00:24.597Z,18.75
2022-10-24T02:03:39.575Z,18.65
2022-10-24T02:06:54.841Z,18.82
2022-10-24T02:10:00.914Z,17.07
2022-10-24T02:13:10.849Z,20.32
2022-10-24T02:16:17.019Z,16.32
2022-10-24T02:19:23.208Z,18.12
2022-10-24T02:22:58.277Z,19.27
2022-10-24T02:26:05.408Z,19.23
2022-10-24T02:29:13.097Z,18.82
2022-10-24T02:32:21.963Z,17.15
2022-10-24T02:35:22.462Z,18.35
2022-10-24T02:38:36.718Z,20.65
2022-10-24T02:41:46.797Z,19.32
2022-10-24T02:44:55.429Z,18.85
2022-10-24T02:48:01.307Z,16.62
2022-10-24T02:51:06.540Z,19.52
2022-10-24T02:54:12.633Z,18.80
2022-10-24T02:57:21.032Z,19.30
2022-10-24T03:00:27.176Z,17.50
2022-10-24T03:03:33.156Z,15.70
2022-10-24T03:06:39.006Z,16.82
2022-10-24T03:09:45.512Z,17.60
2022-10-24T03:12:51.275Z,18.65
2022-10-24T03:15:57.983Z,18.40
2022-10-24T03:18:57.490Z,19.25
2022-10-24T03:21:50.595Z,18.75
2022-10-24T03:24:57.474Z,16.47
2022-10-24T03:28:03.695Z,16.95
2022-10-24T03:31:10.587Z,17.55
2022-10-24T03:34:17.106Z,15.48
2022-10-24T03:37:22.827Z,15.00
2022-10-24T03:40:27.572Z,15.70
2022-10-24T03:43:32.874Z,15.53
2022-10-24T03:46:40.902Z,15.98
2022-10-24T03:49:47.094Z,15.88
2022-10-24T03:52:54.017Z,15.00
2022-10-24T03:55:59.959Z,16.57
2022-10-24T03:59:06.024Z,14.93
2022-10-24T04:02:12.644Z,15.15
2022-10-24T04:05:18.611Z,14.73
2022-10-24T04:08:25.225Z,13.88
2022-10-24T04:11:31.669Z,14.50
2022-10-24T04:14:31.149Z,12.90
2022-10-24T04:17:38.904Z,13.25
2022-10-24T04:20:43.962Z,11.55
2022-10-24T04:23:51.549Z,10.38
2022-10-24T04:26:57.089Z,8.65
2022-10-24T04:30:03.776Z,8.58
2022-10-24T04:33:09.585Z,7.45
2022-10-24T04:36:15.812Z,8.53
2022-10-24T04:39:21.751Z,8.53
2022-10-24T04:42:29.035Z,9.03
2022-10-24T04:45:34.423Z,8.78
2022-10-24T04:48:40.662Z,9.33
2022-10-24T04:51:46.216Z,8.85
2022-10-24T04:54:52.524Z,8.23
2022-10-24T04:57:57.962Z,7.78
2022-10-24T05:01:04.222Z,8.58
2022-10-24T05:04:10.624Z,8.10
2022-10-24T05:07:17.042Z,8.73
2022-10-24T05:10:23.913Z,7.50
2022-10-24T05:13:32.975Z,9.18
2022-10-24T05:16:38.858Z,8.40
2022-10-24T05:19:46.171Z,9.03
2022-10-24T05:22:51.673Z,7.62
2022-10-24T05:25:58.084Z,7.53
2022-10-24T05:29:04.702Z,7.97
2022-10-24T05:32:11.230Z,6.33
2022-10-24T05:35:16.860Z,7.58
2022-10-24T05:38:22.716Z,6.90
2022-10-24T05:41:29.474Z,7.30
2022-10-24T05:44:35.364Z,7.15
2022-10-24T05:47:42.218Z,6.62
2022-10-24T05:50:49.629Z,6.85
2022-10-24T05:53:56.508Z,6.75
2022-10-24T05:57:20.773Z,7.15
2022-10-24T06:00:29.210Z,7.45
2022-10-24T06:03:35.001Z,5.92
2022-10-24T06:06:41.761Z,6.65
2022-10-24T06:09:48.518Z,5.83
2022-10-24T06:12:55.742Z,6.53
2022-10-24T06:16:01.782Z,5.67
2022-10-24T06:19:08.226Z,6.67
2022-10-24T06:22:13.245Z,6.42
2022-10-24T06:25:19.677Z,6.35
2022-10-24T06:28:25.183Z,7.33
2022-10-24T06:31:26.557Z,6.67
2022-10-24T06:34:26.062Z,6.90
2022-10-24T06:37:31.850Z,7.33
2022-10-24T06:40:38.429Z,7.15
2022-10-24T06:43:44.727Z,8.65
2022-10-24T06:46:51.197Z,8.05
2022-10-24T06:49:57.529Z,8.53
2022-10-24T06:53:07.243Z,9.48
2022-10-24T06:56:20.155Z,8.43
2022-10-24T06:59:29.018Z,8.90
2022-10-24T07:02:35.185Z,9.18
2022-10-24T07:05:41.587Z,10.50
2022-10-24T07:08:47.961Z,9.45
2022-10-24T07:11:54.071Z,8.95
2022-10-24T07:14:59.406Z,9.73
2022-10-24T07:18:04.464Z,9.33
2022-10-24T07:21:10.435Z,10.70
2022-10-24T07:24:16.572Z,10.53
2022-10-24T07:27:22.232Z,10.18
2022-10-24T07:30:32.308Z,8.95
2022-10-24T07:33:38.322Z,8.43
2022-10-24T07:36:44.612Z,8.48
2022-10-24T07:39:49.721Z,8.13
2022-10-24T07:42:56.430Z,9.68
2022-10-24T07:49:08.250Z,9.05
2022-10-24T07:52:14.830Z,8.78
2022-10-24T07:55:22.807Z,8.95
2022-10-24T07:58:28.302Z,8.83
2022-10-24T08:01:36.925Z,8.95
2022-10-24T08:04:43.910Z,9.75
2022-10-24T08:07:56.083Z,8.28
2022-10-24T08:14:08.907Z,8.00
2022-10-24T08:17:14.892Z,8.18
2022-10-24T08:20:21.606Z,7.85
2022-10-24T08:23:26.903Z,8.23
2022-10-24T08:26:35.533Z,7.42
2022-10-24T08:29:36.625Z,6.80
2022-10-24T08:32:43.457Z,6.00
2022-10-24T08:35:49.151Z,6.28
2022-10-24T08:38:54.059Z,6.28
2022-10-24T08:42:18.116Z,6.65
2022-10-24T08:45:35.756Z,5.95
2022-10-24T08:48:49.366Z,5.58
2022-10-24T08:52:04.434Z,5.87
2022-10-24T08:55:48.010Z,6.62
2022-10-24T08:58:28.621Z,5.35
2022-10-24T09:02:00.620Z,4.75
2022-10-24T09:05:09.869Z,4.60
2022-10-24T09:08:21.718Z,4.90
2022-10-24T09:11:32.671Z,5.30
2022-10-24T09:14:43.173Z,4.40
2022-10-24T09:17:50.518Z,4.33
2022-10-24T09:20:56.974Z,4.53
2022-10-24T09:24:02.497Z,4.22
2022-10-24T09:27:11.220Z,5.05
2022-10-24T09:30:18.366Z,4.55
2022-10-24T09:33:39.548Z,4.37
2022-10-24T09:36:44.316Z,4.62
2022-10-24T09:39:50.096Z,4.08
2022-10-24T09:42:55.594Z,4.55
2022-10-24T09:46:12.007Z,3.75
2022-10-24T09:49:22.832Z,3.55
2022-10-24T09:52:39.746Z,3.87
2022-10-24T09:55:45.844Z,5.03
2022-10-24T09:58:44.567Z,4.08
2022-10-24T10:01:30.792Z,4.45
2022-10-24T10:04:27.040Z,4.95
2022-10-24T10:07:34.058Z,4.53
2022-10-24T10:10:48.719Z,5.22
2022-10-24T10:14:03.673Z,5.33
2022-10-24T10:17:17.649Z,5.53
2022-10-24T10:20:28.638Z,5.42
2022-10-24T10:23:52.419Z,5.10
2022-10-24T10:27:00.600Z,5.58
2022-10-24T10:30:31.051Z,5.47
2022-10-24T10:33:59.880Z,5.28
2022-10-24T10:37:22.407Z,4.97
2022-10-24T10:40:40.052Z,5.53
2022-10-24T10:44:05.137Z,3.98
2022-10-24T10:47:42.175Z,4.47
2022-10-24T10:50:56.598Z,4.53
2022-10-24T10:54:23.690Z,3.65
2022-10-24T10:57:45.299Z,3.90
2022-10-24T11:01:10.480Z,4.10
2022-10-24T11:04:37.431Z,3.52
2022-10-24T11:07:53.814Z,3.27
2022-10-24T11:11:08.753Z,2.83
2022-10-24T11:14:46.432Z,3.42
2022-10-24T11:18:27.868Z,3.08
2022-10-24T11:21:35.408Z,2.90
2022-10-24T11:24:41.929Z,2.75
2022-10-24T11:27:54.207Z,3.20
2022-10-24T11:31:09.935Z,2.77
2022-10-24T11:34:23.079Z,2.87
2022-10-24T11:37:45.223Z,2.62
2022-10-24T11:40:52.585Z,2.55
2022-10-24T11:43:57.783Z,2.52
2022-10-24T11:47:08.491Z,3.90
2022-10-24T11:50:38.024Z,2.80
2022-10-24T11:53:53.391Z,2.92
2022-10-24T11:57:10.885Z,3.37
2022-10-24T12:00:17.012Z,2.95
2022-10-24T12:03:43.374Z,3.02
2022-10-24T12:07:08.870Z,3.37
2022-10-24T12:10:46.639Z,3.10
2022-10-24T12:14:17.820Z,3.12
2022-10-24T12:17:45.718Z,3.05
2022-10-24T12:20:51.933Z,3.60
2022-10-24T12:23:56.848Z,3.22
2022-10-24T12:27:17.603Z,3.27
2022-10-24T12:30:34.637Z,3.47
2022-10-24T12:33:41.122Z,2.80
2022-10-24T12:37:35.111Z,2.87
2022-10-24T12:41:18.710Z,3.25
2022-10-24T12:44:45.117Z,2.98
2022-10-24T12:48:00.829Z,3.85
2022-10-24T12:51:19.076Z,3.70
2022-10-24T12:54:33.345Z,3.00
2022-10-24T12:57:52.348Z,3.62
2022-10-24T13:01:15.527Z,3.42
2022-10-24T13:05:16.946Z,3.35
2022-10-24T13:08:48.824Z,3.25
2022-10-24T13:12:18.609Z,2.83
2022-10-24T13:15:32.647Z,2.90
2022-10-24T13:19:10.360Z,3.98
2022-10-24T13:22:16.266Z,3.95
2022-10-24T13:25:50.761Z,3.70
2022-10-24T13:28:55.024Z,3.40
2022-10-24T13:32:04.712Z,2.98
2022-10-24T13:35:10.606Z,3.87
2022-10-24T13:38:16.049Z,3.27
2022-10-24T13:41:22.796Z,3.70
2022-10-24T13:44:55.325Z,2.98
2022-10-24T13:48:05.888Z,2.83
2022-10-24T13:51:19.673Z,3.50
2022-10-24T13:54:32.010Z,2.80
2022-10-24T13:57:47.992Z,3.27
2022-10-24T14:00:59.523Z,3.00
2022-10-24T14:03:59.387Z,3.02
2022-10-24T14:07:05.713Z,2.80
2022-10-24T14:10:26.732Z,2.60
2022-10-24T14:13:32.398Z,3.50
2022-10-24T14:16:46.389Z,2.40
2022-10-24T14:19:55.498Z,2.67
2022-10-24T14:23:01.561Z,2.60
2022-10-24T14:26:22.428Z,2.90
2022-10-24T14:29:41.468Z,2.33
2022-10-24T14:32:46.772Z,3.05
2022-10-24T14:35:56.678Z,2.75
2022-10-24T14:39:03.225Z,2.90
2022-10-24T14:42:08.949Z,2.35
2022-10-24T14:45:14.631Z,2.75
2022-10-24T14:48:23.388Z,3.08
2022-10-24T14:51:44.591Z,3.55
2022-10-24T14:54:50.240Z,3.12
2022-10-24T14:58:03.516Z,3.42
2022-10-24T15:01:09.858Z,3.22
2022-10-24T15:04:20.226Z,3.20
2022-10-24T15:07:52.314Z,2.83
2022-10-24T15:10:54.438Z,2.87
2022-10-24T15:14:07.203Z,2.75
2022-10-24T15:17:11.265Z,2.80
2022-10-24T15:20:16.859Z,3.22
2022-10-24T15:23:34.852Z,3.15
2022-10-24T15:26:52.692Z,3.10
2022-10-24T15:29:59.663Z,3.45
2022-10-24T15:33:05.403Z,3.30
2022-10-24T15:36:11.545Z,3.00
2022-10-24T15:39:24.171Z,3.85
2022-10-24T15:42:29.692Z,3.25
2022-10-24T15:45:35.439Z,3.50
2022-10-24T15:48:42.105Z,4.40
2022-10-24T15:51:50.362Z,5.42
2022-10-24T15:54:56.654Z,5.10
2022-10-24T15:58:04.869Z,4.47
2022-10-24T16:00:58.182Z,5.10
2022-10-24T16:04:05.216Z,3.85
2022-10-24T16:07:11.177Z,3.90
2022-10-24T16:10:16.992Z,3.40
2022-10-24T16:13:24.853Z,3.27
2022-10-24T16:16:30.480Z,3.50
2022-10-24T16:19:38.090Z,5.75
2022-10-24T16:22:43.887Z,6.70
2022-10-24T16:25:51.754Z,5.75
2022-10-24T16:28:58.297Z,4.37
2022-10-24T16:32:04.845Z,4.60
2022-10-24T16:35:10.035Z,6.62
2022-10-24T16:38:17.561Z,7.22
2022-10-24T16:41:29.428Z,5.50
2022-10-24T16:44:36.313Z,14.80
2022-10-24T16:47:42.339Z,11.57
2022-10-24T16:50:48.501Z,7.80
2022-10-24T16:53:48.527Z,6.62
2022-10-24T16:56:57.049Z,6.03
2022-10-24T17:00:02.408Z,5.47
2022-10-24T17:03:08.831Z,4.90
2022-10-24T17:06:14.501Z,5.80
2022-10-24T17:09:21.856Z,5.33
2022-10-24T17:12:28.246Z,4.55
2022-10-24T17:15:34.933Z,5.37
2022-10-24T17:18:40.101Z,4.40
2022-10-24T17:21:48.675Z,4.70
2022-10-24T17:24:47.824Z,4.42
2022-10-24T17:27:54.450Z,4.93
2022-10-24T17:31:01.039Z,4.60
2022-10-24T17:34:06.277Z,4.58
2022-10-24T17:37:30.284Z,4.40
2022-10-24T17:40:37.761Z,6.05
2022-10-24T17:43:42.932Z,5.55
2022-10-24T17:46:48.569Z,6.42
2022-10-24T17:49:53.892Z,7.05
2022-10-24T17:53:00.430Z,7.80
2022-10-24T17:56:06.154Z,7.10
2022-10-24T17:59:11.420Z,6.30
2022-10-24T18:02:16.683Z,5.92
2022-10-24T18:05:22.648Z,5.45
2022-10-24T18:08:28.650Z,4.55
2022-10-24T18:11:34.543Z,8.93
2022-10-24T18:14:41.031Z,6.08
2022-10-24T18:17:46.805Z,6.22
2022-10-24T18:20:53.040Z,6.62
2022-10-24T18:23:58.471Z,8.30
2022-10-24T18:27:04.355Z,5.22
2022-10-24T18:30:10.897Z,5.62
2022-10-24T18:33:16.250Z,4.90
2022-10-24T18:36:26.843Z,6.10
2022-10-24T18:39:31.964Z,6.87
2022-10-24T18:42:50.367Z,6.35
2022-10-24T18:45:59.696Z,6.28
2022-10-24T18:49:08.236Z,8.75
2022-10-24T18:52:44.056Z,8.98
2022-10-24T18:55:51.965Z,8.20
2022-10-24T18:58:59.059Z,9.25
2022-10-24T19:02:42.613Z,12.93
2022-10-24T19:05:55.366Z,11.80
2022-10-24T19:09:02.224Z,10.60
2022-10-24T19:12:08.540Z,12.47
2022-10-24T19:15:13.564Z,15.20
2022-10-24T19:18:20.566Z,12.00
2022-10-24T19:21:26.790Z,12.82
2022-10-24T19:24:32.406Z,12.63
2022-10-24T19:27:39.524Z,18.27
2022-10-24T19:30:46.893Z,18.85
2022-10-24T19:33:53.239Z,17.48
2022-10-24T19:36:59.544Z,16.87
2022-10-24T19:40:04.926Z,13.30
2022-10-24T19:43:09.657Z,14.38
2022-10-24T19:46:20.507Z,12.65
2022-10-24T19:49:25.653Z,9.93
2022-10-24T19:52:31.292Z,9.88
2022-10-24T19:55:29.789Z,11.12
2022-10-24T19:58:29.633Z,11.93
2022-10-24T20:01:38.612Z,12.47
2022-10-24T20:07:53.911Z,12.90
2022-10-24T20:11:06.430Z,12.37
2022-10-24T20:14:13.610Z,11.68
2022-10-24T20:17:19.961Z,12.80
2022-10-24T20:20:26.249Z,13.95
2022-10-24T20:23:32.313Z,12.73
2022-10-24T20:26:39.552Z,12.50
2022-10-24T20:29:45.751Z,11.22
2022-10-24T20:32:51.789Z,10.70
2022-10-24T20:35:57.712Z,10.82
2022-10-24T20:39:06.495Z,11.55
2022-10-24T20:42:11.402Z,11.95
2022-10-24T20:45:21.928Z,11.60
2022-10-24T20:48:23.984Z,12.50
2022-10-24T20:51:31.910Z,10.53
2022-10-24T20:54:37.206Z,11.55
2022-10-24T20:57:44.475Z,10.30
2022-10-24T21:00:51.007Z,10.65
2022-10-24T21:03:57.914Z,10.93
2022-10-24T21:07:04.759Z,10.85
2022-10-24T21:10:11.206Z,10.43
2022-10-24T21:13:18.560Z,11.10
2022-10-24T21:16:24.192Z,11.85
2022-10-24T21:19:29.485Z,10.10
2022-10-24T21:22:35.091Z,10.40
2022-10-24T21:25:40.189Z,10.05
2022-10-24T21:28:46.035Z,10.05
2022-10-24T21:31:52.703Z,9.40
2022-10-24T21:34:57.909Z,10.70
2022-10-24T21:38:05.972Z,11.35
2022-10-24T21:41:19.915Z,12.55
2022-10-24T21:44:25.978Z,12.33
2022-10-24T21:47:31.879Z,11.03
2022-10-24T21:50:37.893Z,10.53
2022-10-24T21:53:43.247Z,11.30
2022-10-24T21:56:50.490Z,10.45
2022-10-24T21:59:56.320Z,10.58
2022-10-24T22:03:04.060Z,10.78
2022-10-24T22:06:04.474Z,11.38
2022-10-24T22:09:03.881Z,12.25
2022-10-24T22:12:09.756Z,13.03
2022-10-24T22:15:15.251Z,14.10
2022-10-24T22:18:21.955Z,14.33
2022-10-24T22:21:37.874Z,13.60
2022-10-24T22:24:44.018Z,11.48
2022-10-24T22:27:50.548Z,11.78
2022-10-24T22:30:57.234Z,11.68
2022-10-24T22:34:02.836Z,11.28
2022-10-24T22:37:34.570Z,9.75
2022-10-24T22:40:41.956Z,9.75
2022-10-24T22:43:47.236Z,8.33
2022-10-24T22:47:40.541Z,9.83
2022-10-24T22:51:09.479Z,9.98
2022-10-24T22:54:15.705Z,10.13
2022-10-24T22:57:21.444Z,8.70
2022-10-24T23:00:28.188Z,9.33
2022-10-24T23:03:47.731Z,8.55
2022-10-24T23:07:05.044Z,8.68
2022-10-24T23:10:10.642Z,9.53
2022-10-24T23:13:17.672Z,7.67
2022-10-24T23:16:38.467Z,7.75
2022-10-24T23:19:46.001Z,7.87
2022-10-24T23:22:58.427Z,10.38
2022-10-24T23:26:01.474Z,20.02
2022-10-24T23:29:21.801Z,24.90
2022-10-24T23:32:31.631Z,24.27
2022-10-24T23:35:37.770Z,26.80
2022-10-24T23:38:42.993Z,18.82
2022-10-24T23:41:43.101Z,25.12
2022-10-24T23:44:49.759Z,30.77
2022-10-24T23:48:20.356Z,27.87
2022-10-24T23:51:29.807Z,29.18
2022-10-24T23:54:40.504Z,27.58
2022-10-24T23:57:48.564Z,31.10
